sensor_id;sensor_type;location;lat;lon;timestamp;P1;durP1;ratioP1;P2;durP2;ratioP2
1136;SDS011;557;48.466;7.950;2023-03-20T00:01:02;2.00;;;1.20;;
1136;SDS011;557;48.466;7.950;2023-03-20T00:03:56;1.50;;;0.90;;
1136;SDS011;557;48.466;7.950;2023-03-20T00:06:43;1.97;;;1.20;;
1136;SDS011;557;48.466;7.950;2023-03-20T00:09:31;2.00;;;1.10;;
1136;SDS011;557;48.466;7.950;2023-03-20T00:12:21;2.63;;;1.60;;
1136;SDS011;557;48.466;7.950;2023-03-20T00:15:16;2.53;;;1.80;;
1136;SDS011;557;48.466;7.950;2023-03-20T00:18:12;3.10;;;2.10;;
1136;SDS011;557;48.466;7.950;2023-03-20T00:21:02;2.53;;;1.70;;
1136;SDS011;557;48.466;7.950;2023-03-20T00:23:50;2.53;;;1.20;;
1136;SDS011;557;48.466;7.950;2023-03-20T00:26:37;2.20;;;1.23;;
1136;SDS011;557;48.466;7.950;2023-03-20T00:29:27;1.93;;;1.23;;
1136;SDS011;557;48.466;7.950;2023-03-20T00:32:16;1.67;;;1.03;;
1136;SDS011;557;48.466;7.950;2023-03-20T00:35:07;2.30;;;1.20;;
1136;SDS011;557;48.466;7.950;2023-03-20T00:38:03;2.10;;;1.20;;
1136;SDS011;557;48.466;7.950;2023-03-20T00:40:50;2.27;;;1.07;;
1136;SDS011;557;48.466;7.950;2023-03-20T00:43:38;2.10;;;0.90;;
1136;SDS011;557;48.466;7.950;2023-03-20T00:46:27;1.67;;;0.90;;
1136;SDS011;557;48.466;7.950;2023-03-20T00:49:18;1.97;;;1.10;;
1136;SDS011;557;48.466;7.950;2023-03-20T00:52:08;2.70;;;1.17;;
1136;SDS011;557;48.466;7.950;2023-03-20T00:54:57;2.13;;;1.27;;
1136;SDS011;557;48.466;7.950;2023-03-20T00:57:45;2.53;;;1.20;;
1136;SDS011;557;48.466;7.950;2023-03-20T01:00:36;3.30;;;1.10;;
1136;SDS011;557;48.466;7.950;2023-03-20T01:03:26;2.00;;;1.10;;
1136;SDS011;557;48.466;7.950;2023-03-20T01:06:16;2.50;;;1.20;;
1136;SDS011;557;48.466;7.950;2023-03-20T01:09:04;2.00;;;1.40;;
1136;SDS011;557;48.466;7.950;2023-03-20T01:11:51;1.60;;;1.10;;
1136;SDS011;557;48.466;7.950;2023-03-20T01:14:39;2.30;;;1.30;;
1136;SDS011;557;48.466;7.950;2023-03-20T01:17:27;2.37;;;1.30;;
1136;SDS011;557;48.466;7.950;2023-03-20T01:20:18;1.70;;;1.07;;
1136;SDS011;557;48.466;7.950;2023-03-20T01:23:08;2.20;;;1.40;;
1136;SDS011;557;48.466;7.950;2023-03-20T01:25:56;1.73;;;1.00;;
1136;SDS011;557;48.466;7.950;2023-03-20T01:28:43;2.63;;;1.43;;
1136;SDS011;557;48.466;7.950;2023-03-20T01:31:31;2.50;;;1.50;;
1136;SDS011;557;48.466;7.950;2023-03-20T01:34:18;2.30;;;1.57;;
1136;SDS011;557;48.466;7.950;2023-03-20T01:37:10;2.20;;;1.27;;
1136;SDS011;557;48.466;7.950;2023-03-20T01:39:59;2.30;;;1.40;;
1136;SDS011;557;48.466;7.950;2023-03-20T01:42:47;2.67;;;1.63;;
1136;SDS011;557;48.466;7.950;2023-03-20T01:45:35;2.50;;;1.47;;
1136;SDS011;557;48.466;7.950;2023-03-20T01:48:23;1.63;;;1.00;;
1136;SDS011;557;48.466;7.950;2023-03-20T01:51:13;2.10;;;1.20;;
1136;SDS011;557;48.466;7.950;2023-03-20T01:54:03;2.50;;;1.50;;
1136;SDS011;557;48.466;7.950;2023-03-20T01:56:55;2.00;;;1.50;;
1136;SDS011;557;48.466;7.950;2023-03-20T01:59:46;2.00;;;1.40;;
1136;SDS011;557;48.466;7.950;2023-03-20T02:02:36;2.50;;;1.40;;
1136;SDS011;557;48.466;7.950;2023-03-20T02:05:26;2.10;;;1.20;;
1136;SDS011;557;48.466;7.950;2023-03-20T02:08:16;1.90;;;1.17;;
1136;SDS011;557;48.466;7.950;2023-03-20T02:11:09;3.33;;;1.40;;
1136;SDS011;557;48.466;7.950;2023-03-20T02:13:58;1.90;;;1.20;;
1136;SDS011;557;48.466;7.950;2023-03-20T02:16:47;1.97;;;1.43;;
1136;SDS011;557;48.466;7.950;2023-03-20T02:19:36;2.00;;;1.40;;
1136;SDS011;557;48.466;7.950;2023-03-20T02:26:13;2.53;;;1.70;;
1136;SDS011;557;48.466;7.950;2023-03-20T02:29:24;2.30;;;1.40;;
1136;SDS011;557;48.466;7.950;2023-03-20T02:36:08;2.23;;;1.60;;
1136;SDS011;557;48.466;7.950;2023-03-20T02:42:44;3.70;;;2.10;;
1136;SDS011;557;48.466;7.950;2023-03-20T02:45:41;3.17;;;2.00;;
1136;SDS011;557;48.466;7.950;2023-03-20T02:48:37;2.20;;;1.60;;
1136;SDS011;557;48.466;7.950;2023-03-20T02:51:32;3.17;;;2.23;;
1136;SDS011;557;48.466;7.950;2023-03-20T02:54:25;2.67;;;1.83;;
1136;SDS011;557;48.466;7.950;2023-03-20T02:57:22;3.67;;;2.23;;
1136;SDS011;557;48.466;7.950;2023-03-20T03:00:20;2.50;;;1.73;;
1136;SDS011;557;48.466;7.950;2023-03-20T03:03:13;3.60;;;2.13;;
1136;SDS011;557;48.466;7.950;2023-03-20T03:06:05;3.40;;;2.60;;
1136;SDS011;557;48.466;7.950;2023-03-20T03:08:57;2.77;;;2.40;;
1136;SDS011;557;48.466;7.950;2023-03-20T03:11:50;2.47;;;1.97;;
1136;SDS011;557;48.466;7.950;2023-03-20T03:14:42;4.80;;;2.23;;
1136;SDS011;557;48.466;7.950;2023-03-20T03:17:33;2.80;;;2.00;;
1136;SDS011;557;48.466;7.950;2023-03-20T03:20:24;4.03;;;2.23;;
1136;SDS011;557;48.466;7.950;2023-03-20T03:23:17;4.10;;;2.37;;
1136;SDS011;557;48.466;7.950;2023-03-20T03:26:17;4.50;;;2.50;;
1136;SDS011;557;48.466;7.950;2023-03-20T03:29:08;4.97;;;2.87;;
1136;SDS011;557;48.466;7.950;2023-03-20T03:32:02;4.20;;;2.57;;
1136;SDS011;557;48.466;7.950;2023-03-20T03:34:53;5.50;;;3.10;;
1136;SDS011;557;48.466;7.950;2023-03-20T03:37:44;3.93;;;2.50;;
1136;SDS011;557;48.466;7.950;2023-03-20T03:40:38;5.27;;;3.47;;
1136;SDS011;557;48.466;7.950;2023-03-20T03:43:30;4.30;;;2.07;;
1136;SDS011;557;48.466;7.950;2023-03-20T03:46:21;3.37;;;2.83;;
1136;SDS011;557;48.466;7.950;2023-03-20T03:49:15;2.97;;;2.30;;
1136;SDS011;557;48.466;7.950;2023-03-20T03:52:09;4.03;;;2.80;;
1136;SDS011;557;48.466;7.950;2023-03-20T03:55:02;3.60;;;2.93;;
1136;SDS011;557;48.466;7.950;2023-03-20T03:57:54;3.90;;;2.47;;
1136;SDS011;557;48.466;7.950;2023-03-20T04:00:44;4.27;;;2.90;;
1136;SDS011;557;48.466;7.950;2023-03-20T04:03:35;5.33;;;2.70;;
1136;SDS011;557;48.466;7.950;2023-03-20T04:06:25;3.17;;;1.87;;
1136;SDS011;557;48.466;7.950;2023-03-20T04:09:14;4.33;;;2.53;;
1136;SDS011;557;48.466;7.950;2023-03-20T04:12:02;2.77;;;2.00;;
1136;SDS011;557;48.466;7.950;2023-03-20T04:14:49;4.90;;;2.80;;
1136;SDS011;557;48.466;7.950;2023-03-20T04:17:37;2.63;;;2.03;;
1136;SDS011;557;48.466;7.950;2023-03-20T04:20:24;2.80;;;1.70;;
1136;SDS011;557;48.466;7.950;2023-03-20T04:23:12;3.53;;;1.90;;
1136;SDS011;557;48.466;7.950;2023-03-20T04:26:00;3.57;;;2.20;;
1136;SDS011;557;48.466;7.950;2023-03-20T04:28:48;2.93;;;2.00;;
1136;SDS011;557;48.466;7.950;2023-03-20T04:31:36;4.00;;;2.10;;
1136;SDS011;557;48.466;7.950;2023-03-20T04:34:23;3.07;;;2.07;;
1136;SDS011;557;48.466;7.950;2023-03-20T04:37:10;3.10;;;2.40;;
1136;SDS011;557;48.466;7.950;2023-03-20T04:39:58;3.10;;;2.40;;
1136;SDS011;557;48.466;7.950;2023-03-20T04:42:47;3.27;;;2.47;;
1136;SDS011;557;48.466;7.950;2023-03-20T04:45:34;3.20;;;2.47;;
1136;SDS011;557;48.466;7.950;2023-03-20T04:48:21;3.80;;;2.87;;
1136;SDS011;557;48.466;7.950;2023-03-20T04:51:09;3.87;;;2.73;;
1136;SDS011;557;48.466;7.950;2023-03-20T04:53:56;4.90;;;3.50;;
1136;SDS011;557;48.466;7.950;2023-03-20T04:56:43;4.13;;;2.57;;
1136;SDS011;557;48.466;7.950;2023-03-20T04:59:32;4.70;;;2.73;;
1136;SDS011;557;48.466;7.950;2023-03-20T05:02:19;4.43;;;3.07;;
1136;SDS011;557;48.466;7.950;2023-03-20T05:05:06;4.70;;;3.00;;
1136;SDS011;557;48.466;7.950;2023-03-20T05:07:54;5.73;;;3.40;;
1136;SDS011;557;48.466;7.950;2023-03-20T05:10:41;4.60;;;3.50;;
1136;SDS011;557;48.466;7.950;2023-03-20T05:13:28;4.40;;;3.00;;
1136;SDS011;557;48.466;7.950;2023-03-20T05:16:17;7.83;;;3.87;;
1136;SDS011;557;48.466;7.950;2023-03-20T05:19:05;5.37;;;2.90;;
1136;SDS011;557;48.466;7.950;2023-03-20T05:21:52;4.40;;;3.93;;
1136;SDS011;557;48.466;7.950;2023-03-20T05:24:40;5.00;;;3.50;;
1136;SDS011;557;48.466;7.950;2023-03-20T05:27:27;5.90;;;3.53;;
1136;SDS011;557;48.466;7.950;2023-03-20T05:30:14;4.60;;;3.50;;
1136;SDS011;557;48.466;7.950;2023-03-20T05:33:05;3.70;;;2.83;;
1136;SDS011;557;48.466;7.950;2023-03-20T05:35:52;5.83;;;3.17;;
1136;SDS011;557;48.466;7.950;2023-03-20T05:38:39;5.53;;;3.70;;
1136;SDS011;557;48.466;7.950;2023-03-20T05:41:27;5.00;;;3.57;;
1136;SDS011;557;48.466;7.950;2023-03-20T05:44:14;4.10;;;3.30;;
1136;SDS011;557;48.466;7.950;2023-03-20T05:47:01;5.37;;;3.73;;
1136;SDS011;557;48.466;7.950;2023-03-20T05:49:50;3.90;;;2.60;;
1136;SDS011;557;48.466;7.950;2023-03-20T05:52:37;3.90;;;2.80;;
1136;SDS011;557;48.466;7.950;2023-03-20T05:55:25;3.33;;;2.50;;
1136;SDS011;557;48.466;7.950;2023-03-20T05:58:12;4.20;;;3.10;;
1136;SDS011;557;48.466;7.950;2023-03-20T06:01:00;4.53;;;3.20;;
1136;SDS011;557;48.466;7.950;2023-03-20T06:03:47;4.50;;;2.60;;
1136;SDS011;557;48.466;7.950;2023-03-20T06:06:36;3.60;;;2.63;;
1136;SDS011;557;48.466;7.950;2023-03-20T06:09:23;3.73;;;2.60;;
1136;SDS011;557;48.466;7.950;2023-03-20T06:12:11;2.93;;;2.00;;
1136;SDS011;557;48.466;7.950;2023-03-20T06:14:58;3.10;;;2.30;;
1136;SDS011;557;48.466;7.950;2023-03-20T06:17:45;4.70;;;2.60;;
1136;SDS011;557;48.466;7.950;2023-03-20T06:20:33;2.80;;;2.00;;
1136;SDS011;557;48.466;7.950;2023-03-20T06:23:21;4.63;;;2.20;;
1136;SDS011;557;48.466;7.950;2023-03-20T06:26:09;2.70;;;1.87;;
1136;SDS011;557;48.466;7.950;2023-03-20T06:28:56;3.23;;;2.17;;
1136;SDS011;557;48.466;7.950;2023-03-20T06:31:44;3.90;;;1.70;;
1136;SDS011;557;48.466;7.950;2023-03-20T06:34:31;3.20;;;1.93;;
1136;SDS011;557;48.466;7.950;2023-03-20T06:37:18;2.93;;;1.83;;
1136;SDS011;557;48.466;7.950;2023-03-20T06:40:08;3.17;;;1.87;;
1136;SDS011;557;48.466;7.950;2023-03-20T06:42:56;2.10;;;1.53;;
1136;SDS011;557;48.466;7.950;2023-03-20T06:45:43;2.47;;;1.40;;
1136;SDS011;557;48.466;7.950;2023-03-20T06:48:30;4.10;;;2.30;;
1136;SDS011;557;48.466;7.950;2023-03-20T06:51:18;3.47;;;2.13;;
1136;SDS011;557;48.466;7.950;2023-03-20T06:54:05;4.10;;;2.27;;
1136;SDS011;557;48.466;7.950;2023-03-20T06:56:54;3.57;;;2.07;;
1136;SDS011;557;48.466;7.950;2023-03-20T06:59:41;3.67;;;2.50;;
1136;SDS011;557;48.466;7.950;2023-03-20T07:02:29;2.80;;;1.87;;
1136;SDS011;557;48.466;7.950;2023-03-20T07:05:16;3.30;;;2.10;;
1136;SDS011;557;48.466;7.950;2023-03-20T07:08:03;3.30;;;1.80;;
1136;SDS011;557;48.466;7.950;2023-03-20T07:10:51;4.40;;;2.23;;
1136;SDS011;557;48.466;7.950;2023-03-20T07:13:40;2.20;;;1.70;;
1136;SDS011;557;48.466;7.950;2023-03-20T07:16:28;3.80;;;2.30;;
1136;SDS011;557;48.466;7.950;2023-03-20T07:19:15;4.03;;;2.70;;
1136;SDS011;557;48.466;7.950;2023-03-20T07:22:04;3.93;;;2.63;;
1136;SDS011;557;48.466;7.950;2023-03-20T07:24:53;5.73;;;2.60;;
1136;SDS011;557;48.466;7.950;2023-03-20T07:27:41;3.10;;;2.50;;
1136;SDS011;557;48.466;7.950;2023-03-20T07:30:36;4.20;;;2.60;;
1136;SDS011;557;48.466;7.950;2023-03-20T07:33:23;4.23;;;2.50;;
1136;SDS011;557;48.466;7.950;2023-03-20T07:36:10;3.27;;;2.37;;
1136;SDS011;557;48.466;7.950;2023-03-20T07:38:58;3.93;;;2.30;;
1136;SDS011;557;48.466;7.950;2023-03-20T07:41:45;4.97;;;3.20;;
1136;SDS011;557;48.466;7.950;2023-03-20T07:44:32;5.50;;;2.97;;
1136;SDS011;557;48.466;7.950;2023-03-20T07:47:21;6.30;;;3.13;;
1136;SDS011;557;48.466;7.950;2023-03-20T07:50:09;4.30;;;3.10;;
1136;SDS011;557;48.466;7.950;2023-03-20T07:52:57;4.50;;;3.33;;
1136;SDS011;557;48.466;7.950;2023-03-20T07:55:44;7.00;;;4.00;;
1136;SDS011;557;48.466;7.950;2023-03-20T07:58:31;5.53;;;3.27;;
1136;SDS011;557;48.466;7.950;2023-03-20T08:01:19;5.23;;;3.40;;
1136;SDS011;557;48.466;7.950;2023-03-20T08:04:07;4.50;;;3.03;;
1136;SDS011;557;48.466;7.950;2023-03-20T08:06:55;6.17;;;3.10;;
1136;SDS011;557;48.466;7.950;2023-03-20T08:09:42;5.63;;;3.53;;
1136;SDS011;557;48.466;7.950;2023-03-20T08:12:29;4.67;;;3.13;;
1136;SDS011;557;48.466;7.950;2023-03-20T08:15:17;5.10;;;2.73;;
1136;SDS011;557;48.466;7.950;2023-03-20T08:18:04;5.53;;;3.33;;
1136;SDS011;557;48.466;7.950;2023-03-20T08:20:53;7.33;;;3.07;;
1136;SDS011;557;48.466;7.950;2023-03-20T08:23:40;5.80;;;3.70;;
1136;SDS011;557;48.466;7.950;2023-03-20T08:26:27;6.50;;;3.83;;
1136;SDS011;557;48.466;7.950;2023-03-20T08:29:15;4.37;;;2.60;;
1136;SDS011;557;48.466;7.950;2023-03-20T08:32:03;4.17;;;2.87;;
1136;SDS011;557;48.466;7.950;2023-03-20T08:34:51;5.60;;;3.00;;
1136;SDS011;557;48.466;7.950;2023-03-20T08:37:41;4.87;;;3.10;;
1136;SDS011;557;48.466;7.950;2023-03-20T08:40:28;5.50;;;2.70;;
1136;SDS011;557;48.466;7.950;2023-03-20T08:43:16;4.50;;;3.00;;
1136;SDS011;557;48.466;7.950;2023-03-20T08:46:04;3.47;;;2.40;;
1136;SDS011;557;48.466;7.950;2023-03-20T08:48:51;6.80;;;2.53;;
1136;SDS011;557;48.466;7.950;2023-03-20T08:51:39;4.83;;;3.23;;
1136;SDS011;557;48.466;7.950;2023-03-20T08:54:28;3.40;;;2.43;;
1136;SDS011;557;48.466;7.950;2023-03-20T08:57:16;4.10;;;2.60;;
1136;SDS011;557;48.466;7.950;2023-03-20T09:00:03;3.67;;;2.63;;
1136;SDS011;557;48.466;7.950;2023-03-20T09:02:52;5.17;;;3.13;;
1136;SDS011;557;48.466;7.950;2023-03-20T09:05:39;3.93;;;3.10;;
1136;SDS011;557;48.466;7.950;2023-03-20T09:08:27;3.90;;;2.80;;
1136;SDS011;557;48.466;7.950;2023-03-20T09:11:16;5.47;;;3.03;;
1136;SDS011;557;48.466;7.950;2023-03-20T09:14:03;5.10;;;3.13;;
1136;SDS011;557;48.466;7.950;2023-03-20T09:16:50;4.73;;;2.87;;
1136;SDS011;557;48.466;7.950;2023-03-20T09:19:38;4.13;;;2.90;;
1136;SDS011;557;48.466;7.950;2023-03-20T09:22:28;4.10;;;3.27;;
1136;SDS011;557;48.466;7.950;2023-03-20T09:25:15;5.40;;;4.00;;
1136;SDS011;557;48.466;7.950;2023-03-20T09:28:04;4.30;;;3.13;;
1136;SDS011;557;48.466;7.950;2023-03-20T09:30:53;3.80;;;3.30;;
1136;SDS011;557;48.466;7.950;2023-03-20T09:33:41;3.73;;;3.33;;
1136;SDS011;557;48.466;7.950;2023-03-20T09:36:29;3.90;;;3.50;;
1136;SDS011;557;48.466;7.950;2023-03-20T09:39:16;4.10;;;3.53;;
1136;SDS011;557;48.466;7.950;2023-03-20T09:42:06;4.50;;;4.10;;
1136;SDS011;557;48.466;7.950;2023-03-20T09:45:06;4.40;;;4.00;;
1136;SDS011;557;48.466;7.950;2023-03-20T09:47:58;3.90;;;3.53;;
1136;SDS011;557;48.466;7.950;2023-03-20T09:50:51;5.50;;;3.83;;
1136;SDS011;557;48.466;7.950;2023-03-20T09:53:48;3.87;;;3.43;;
1136;SDS011;557;48.466;7.950;2023-03-20T09:56:39;5.77;;;4.60;;
1136;SDS011;557;48.466;7.950;2023-03-20T09:59:27;5.40;;;3.80;;
1136;SDS011;557;48.466;7.950;2023-03-20T10:02:18;4.37;;;3.97;;
1136;SDS011;557;48.466;7.950;2023-03-20T10:05:13;4.33;;;3.93;;
1136;SDS011;557;48.466;7.950;2023-03-20T10:08:10;5.27;;;4.77;;
1136;SDS011;557;48.466;7.950;2023-03-20T10:11:03;5.13;;;4.63;;
1136;SDS011;557;48.466;7.950;2023-03-20T10:17:23;5.60;;;5.10;;
1136;SDS011;557;48.466;7.950;2023-03-20T10:20:23;6.00;;;5.40;;
1136;SDS011;557;48.466;7.950;2023-03-20T10:23:15;5.40;;;5.00;;
1136;SDS011;557;48.466;7.950;2023-03-20T10:26:12;5.37;;;4.83;;
1136;SDS011;557;48.466;7.950;2023-03-20T10:29:03;5.20;;;4.73;;
1136;SDS011;557;48.466;7.950;2023-03-20T10:31:55;5.43;;;5.03;;
1136;SDS011;557;48.466;7.950;2023-03-20T10:34:50;6.03;;;5.63;;
1136;SDS011;557;48.466;7.950;2023-03-20T10:37:49;6.70;;;6.30;;
1136;SDS011;557;48.466;7.950;2023-03-20T10:40:47;6.73;;;6.33;;
1136;SDS011;557;48.466;7.950;2023-03-20T10:43:35;7.00;;;6.50;;
1136;SDS011;557;48.466;7.950;2023-03-20T10:46:24;6.97;;;6.57;;
1136;SDS011;557;48.466;7.950;2023-03-20T10:49:16;7.00;;;6.60;;
1136;SDS011;557;48.466;7.950;2023-03-20T10:52:10;7.30;;;6.80;;
1136;SDS011;557;48.466;7.950;2023-03-20T10:55:02;6.73;;;6.33;;
1136;SDS011;557;48.466;7.950;2023-03-20T10:57:54;6.90;;;6.50;;
1136;SDS011;557;48.466;7.950;2023-03-20T11:00:45;7.00;;;6.60;;
1136;SDS011;557;48.466;7.950;2023-03-20T11:03:32;6.77;;;6.40;;
1136;SDS011;557;48.466;7.950;2023-03-20T11:06:24;6.77;;;6.37;;
1136;SDS011;557;48.466;7.950;2023-03-20T11:09:19;6.60;;;6.00;;
1136;SDS011;557;48.466;7.950;2023-03-20T11:12:12;6.70;;;6.30;;
1136;SDS011;557;48.466;7.950;2023-03-20T11:15:03;5.80;;;5.40;;
1136;SDS011;557;48.466;7.950;2023-03-20T11:18:01;5.90;;;5.40;;
1136;SDS011;557;48.466;7.950;2023-03-20T11:20:53;5.50;;;5.20;;
1136;SDS011;557;48.466;7.950;2023-03-20T11:23:41;5.70;;;5.30;;
1136;SDS011;557;48.466;7.950;2023-03-20T11:26:33;5.20;;;4.80;;
1136;SDS011;557;48.466;7.950;2023-03-20T11:29:23;5.80;;;5.40;;
1136;SDS011;557;48.466;7.950;2023-03-20T11:32:17;6.00;;;5.50;;
1136;SDS011;557;48.466;7.950;2023-03-20T11:35:13;5.40;;;5.00;;
1136;SDS011;557;48.466;7.950;2023-03-20T11:38:07;5.57;;;5.17;;
1136;SDS011;557;48.466;7.950;2023-03-20T11:40:59;5.60;;;5.20;;
1136;SDS011;557;48.466;7.950;2023-03-20T11:43:52;6.17;;;5.70;;
1136;SDS011;557;48.466;7.950;2023-03-20T11:46:40;6.07;;;5.70;;
1136;SDS011;557;48.466;7.950;2023-03-20T11:49:27;5.83;;;5.33;;
1136;SDS011;557;48.466;7.950;2023-03-20T11:52:16;6.10;;;5.60;;
1136;SDS011;557;48.466;7.950;2023-03-20T11:55:19;6.50;;;6.00;;
1136;SDS011;557;48.466;7.950;2023-03-20T11:58:11;5.90;;;5.60;;
1136;SDS011;557;48.466;7.950;2023-03-20T12:01:03;6.70;;;6.20;;
1136;SDS011;557;48.466;7.950;2023-03-20T12:03:59;7.20;;;6.60;;
1136;SDS011;557;48.466;7.950;2023-03-20T12:06:50;7.10;;;6.70;;
1136;SDS011;557;48.466;7.950;2023-03-20T12:09:41;6.97;;;6.53;;
1136;SDS011;557;48.466;7.950;2023-03-20T12:12:33;7.10;;;6.70;;
1136;SDS011;557;48.466;7.950;2023-03-20T12:15:27;7.13;;;6.53;;
1136;SDS011;557;48.466;7.950;2023-03-20T12:18:19;7.30;;;6.80;;
1136;SDS011;557;48.466;7.950;2023-03-20T12:21:13;6.90;;;6.40;;
1136;SDS011;557;48.466;7.950;2023-03-20T12:24:07;6.97;;;6.37;;
1136;SDS011;557;48.466;7.950;2023-03-20T12:27:02;6.90;;;6.40;;
1136;SDS011;557;48.466;7.950;2023-03-20T12:30:00;7.50;;;7.00;;
1136;SDS011;557;48.466;7.950;2023-03-20T12:32:55;7.17;;;6.67;;
1136;SDS011;557;48.466;7.950;2023-03-20T12:35:48;7.70;;;7.20;;
1136;SDS011;557;48.466;7.950;2023-03-20T12:38:39;7.50;;;7.00;;
1136;SDS011;557;48.466;7.950;2023-03-20T12:41:28;7.77;;;7.27;;
1136;SDS011;557;48.466;7.950;2023-03-20T12:44:20;7.30;;;6.90;;
1136;SDS011;557;48.466;7.950;2023-03-20T12:47:25;7.40;;;6.90;;
1136;SDS011;557;48.466;7.950;2023-03-20T12:50:29;7.53;;;7.03;;
1136;SDS011;557;48.466;7.950;2023-03-20T12:53:32;8.07;;;7.57;;
1136;SDS011;557;48.466;7.950;2023-03-20T12:56:30;7.80;;;7.30;;
1136;SDS011;557;48.466;7.950;2023-03-20T12:59:36;8.03;;;7.53;;
1136;SDS011;557;48.466;7.950;2023-03-20T13:02:37;7.60;;;7.20;;
1136;SDS011;557;48.466;7.950;2023-03-20T13:05:33;7.57;;;7.17;;
1136;SDS011;557;48.466;7.950;2023-03-20T13:08:37;7.80;;;7.40;;
1136;SDS011;557;48.466;7.950;2023-03-20T13:11:34;7.70;;;7.30;;
1136;SDS011;557;48.466;7.950;2023-03-20T13:14:30;8.07;;;7.57;;
1136;SDS011;557;48.466;7.950;2023-03-20T13:17:23;7.70;;;7.30;;
1136;SDS011;557;48.466;7.950;2023-03-20T13:20:20;7.60;;;7.20;;
1136;SDS011;557;48.466;7.950;2023-03-20T13:23:15;7.73;;;7.30;;
1136;SDS011;557;48.466;7.950;2023-03-20T13:26:12;6.87;;;6.57;;
1136;SDS011;557;48.466;7.950;2023-03-20T13:29:07;7.40;;;7.00;;
1136;SDS011;557;48.466;7.950;2023-03-20T13:32:04;6.90;;;6.50;;
1136;SDS011;557;48.466;7.950;2023-03-20T13:35:08;7.53;;;7.03;;
1136;SDS011;557;48.466;7.950;2023-03-20T13:38:10;6.70;;;6.40;;
1136;SDS011;557;48.466;7.950;2023-03-20T13:41:02;7.50;;;7.03;;
1136;SDS011;557;48.466;7.950;2023-03-20T13:43:56;6.90;;;6.50;;
1136;SDS011;557;48.466;7.950;2023-03-20T13:46:48;7.40;;;7.00;;
1136;SDS011;557;48.466;7.950;2023-03-20T13:49:38;7.13;;;6.73;;
1136;SDS011;557;48.466;7.950;2023-03-20T13:52:34;7.63;;;7.23;;
1136;SDS011;557;48.466;7.950;2023-03-20T13:55:29;6.90;;;6.60;;
1136;SDS011;557;48.466;7.950;2023-03-20T13:58:27;7.53;;;7.13;;
1136;SDS011;557;48.466;7.950;2023-03-20T14:01:39;7.03;;;6.63;;
1136;SDS011;557;48.466;7.950;2023-03-20T14:04:35;7.33;;;6.93;;
1136;SDS011;557;48.466;7.950;2023-03-20T14:07:26;7.40;;;7.00;;
1136;SDS011;557;48.466;7.950;2023-03-20T14:13:19;7.63;;;7.13;;
1136;SDS011;557;48.466;7.950;2023-03-20T14:16:08;7.57;;;7.17;;
1136;SDS011;557;48.466;7.950;2023-03-20T14:19:05;7.87;;;7.37;;
1136;SDS011;557;48.466;7.950;2023-03-20T14:21:54;7.70;;;7.30;;
1136;SDS011;557;48.466;7.950;2023-03-20T14:24:44;8.20;;;7.70;;
1136;SDS011;557;48.466;7.950;2023-03-20T14:27:52;8.30;;;7.80;;
1136;SDS011;557;48.466;7.950;2023-03-20T14:30:42;7.80;;;7.40;;
1136;SDS011;557;48.466;7.950;2023-03-20T14:33:30;7.93;;;7.53;;
1136;SDS011;557;48.466;7.950;2023-03-20T14:36:20;7.63;;;7.23;;
1136;SDS011;557;48.466;7.950;2023-03-20T14:39:14;8.00;;;7.60;;
1136;SDS011;557;48.466;7.950;2023-03-20T14:42:17;7.90;;;7.50;;
1136;SDS011;557;48.466;7.950;2023-03-20T14:45:24;8.00;;;7.60;;
1136;SDS011;557;48.466;7.950;2023-03-20T14:48:26;7.77;;;7.30;;
1136;SDS011;557;48.466;7.950;2023-03-20T14:51:21;8.00;;;7.50;;
1136;SDS011;557;48.466;7.950;2023-03-20T14:54:23;7.90;;;7.50;;
1136;SDS011;557;48.466;7.950;2023-03-20T14:57:16;7.67;;;7.27;;
1136;SDS011;557;48.466;7.950;2023-03-20T15:00:14;8.17;;;7.67;;
1136;SDS011;557;48.466;7.950;2023-03-20T15:03:05;8.80;;;8.30;;
1136;SDS011;557;48.466;7.950;2023-03-20T15:05:54;7.90;;;7.50;;
1136;SDS011;557;48.466;7.950;2023-03-20T15:08:44;7.87;;;7.53;;
1136;SDS011;557;48.466;7.950;2023-03-20T15:11:35;7.50;;;7.10;;
1136;SDS011;557;48.466;7.950;2023-03-20T15:14:23;7.33;;;7.00;;
1136;SDS011;557;48.466;7.950;2023-03-20T15:17:15;7.60;;;7.20;;
1136;SDS011;557;48.466;7.950;2023-03-20T15:20:06;7.70;;;7.20;;
1136;SDS011;557;48.466;7.950;2023-03-20T15:23:00;8.07;;;7.53;;
1136;SDS011;557;48.466;7.950;2023-03-20T15:25:50;7.63;;;7.23;;
1136;SDS011;557;48.466;7.950;2023-03-20T15:28:38;7.30;;;6.90;;
1136;SDS011;557;48.466;7.950;2023-03-20T15:31:28;6.83;;;6.53;;
1136;SDS011;557;48.466;7.950;2023-03-20T15:34:18;6.80;;;6.50;;
1136;SDS011;557;48.466;7.950;2023-03-20T15:37:09;7.00;;;6.70;;
1136;SDS011;557;48.466;7.950;2023-03-20T15:40:00;7.30;;;6.90;;
1136;SDS011;557;48.466;7.950;2023-03-20T15:42:59;7.67;;;7.27;;
1136;SDS011;557;48.466;7.950;2023-03-20T15:45:56;7.73;;;7.40;;
1136;SDS011;557;48.466;7.950;2023-03-20T15:48:46;8.07;;;7.67;;
1136;SDS011;557;48.466;7.950;2023-03-20T15:51:34;7.30;;;6.90;;
1136;SDS011;557;48.466;7.950;2023-03-20T15:54:21;7.70;;;7.10;;
1136;SDS011;557;48.466;7.950;2023-03-20T15:57:10;8.30;;;7.90;;
1136;SDS011;557;48.466;7.950;2023-03-20T16:00:08;9.33;;;8.73;;
1136;SDS011;557;48.466;7.950;2023-03-20T16:03:02;9.00;;;8.43;;
1136;SDS011;557;48.466;7.950;2023-03-20T16:05:53;8.43;;;7.97;;
1136;SDS011;557;48.466;7.950;2023-03-20T16:08:45;8.90;;;8.40;;
1136;SDS011;557;48.466;7.950;2023-03-20T16:11:44;8.20;;;7.80;;
1136;SDS011;557;48.466;7.950;2023-03-20T16:14:32;9.57;;;9.07;;
1136;SDS011;557;48.466;7.950;2023-03-20T16:17:22;9.20;;;8.70;;
1136;SDS011;557;48.466;7.950;2023-03-20T16:20:12;8.10;;;7.70;;
1136;SDS011;557;48.466;7.950;2023-03-20T16:23:02;9.03;;;8.53;;
1136;SDS011;557;48.466;7.950;2023-03-20T16:25:55;8.57;;;8.17;;
1136;SDS011;557;48.466;7.950;2023-03-20T16:28:44;8.37;;;7.97;;
1136;SDS011;557;48.466;7.950;2023-03-20T16:31:33;8.87;;;8.43;;
1136;SDS011;557;48.466;7.950;2023-03-20T16:34:24;8.30;;;7.90;;
1136;SDS011;557;48.466;7.950;2023-03-20T16:37:22;8.80;;;8.40;;
1136;SDS011;557;48.466;7.950;2023-03-20T16:40:12;8.77;;;8.37;;
1136;SDS011;557;48.466;7.950;2023-03-20T16:43:04;8.40;;;8.00;;
1136;SDS011;557;48.466;7.950;2023-03-20T16:45:53;8.63;;;8.23;;
1136;SDS011;557;48.466;7.950;2023-03-20T16:48:42;10.30;;;9.60;;
1136;SDS011;557;48.466;7.950;2023-03-20T16:51:31;10.30;;;9.80;;
1136;SDS011;557;48.466;7.950;2023-03-20T16:54:18;8.70;;;8.30;;
1136;SDS011;557;48.466;7.950;2023-03-20T16:57:07;8.27;;;7.87;;
1136;SDS011;557;48.466;7.950;2023-03-20T17:00:00;8.47;;;8.03;;
1136;SDS011;557;48.466;7.950;2023-03-20T17:02:52;8.20;;;7.80;;
1136;SDS011;557;48.466;7.950;2023-03-20T17:05:48;8.07;;;7.67;;
1136;SDS011;557;48.466;7.950;2023-03-20T17:08:41;9.93;;;9.43;;
1136;SDS011;557;48.466;7.950;2023-03-20T17:11:33;7.67;;;7.27;;
1136;SDS011;557;48.466;7.950;2023-03-20T17:14:22;9.40;;;8.90;;
1136;SDS011;557;48.466;7.950;2023-03-20T17:17:10;8.60;;;8.13;;
1136;SDS011;557;48.466;7.950;2023-03-20T17:19:58;9.60;;;8.97;;
1136;SDS011;557;48.466;7.950;2023-03-20T17:22:46;11.73;;;10.53;;
1136;SDS011;557;48.466;7.950;2023-03-20T17:25:35;9.70;;;8.87;;
1136;SDS011;557;48.466;7.950;2023-03-20T17:28:23;7.17;;;6.77;;
1136;SDS011;557;48.466;7.950;2023-03-20T17:31:16;11.60;;;10.30;;
1136;SDS011;557;48.466;7.950;2023-03-20T17:34:04;7.70;;;7.30;;
1136;SDS011;557;48.466;7.950;2023-03-20T17:36:51;7.40;;;6.90;;
1136;SDS011;557;48.466;7.950;2023-03-20T17:39:39;8.40;;;7.70;;
1136;SDS011;557;48.466;7.950;2023-03-20T17:42:27;8.43;;;7.93;;
1136;SDS011;557;48.466;7.950;2023-03-20T17:45:16;7.87;;;7.40;;
1136;SDS011;557;48.466;7.950;2023-03-20T17:48:04;7.60;;;7.10;;
1136;SDS011;557;48.466;7.950;2023-03-20T17:50:51;8.37;;;7.87;;
1136;SDS011;557;48.466;7.950;2023-03-20T17:53:39;8.60;;;8.00;;
1136;SDS011;557;48.466;7.950;2023-03-20T17:56:26;9.00;;;8.40;;
1136;SDS011;557;48.466;7.950;2023-03-20T17:59:16;8.30;;;7.70;;
1136;SDS011;557;48.466;7.950;2023-03-20T18:02:03;7.30;;;6.90;;
1136;SDS011;557;48.466;7.950;2023-03-20T18:04:51;9.83;;;8.90;;
1136;SDS011;557;48.466;7.950;2023-03-20T18:07:39;8.73;;;8.13;;
1136;SDS011;557;48.466;7.950;2023-03-20T18:10:27;7.30;;;6.90;;
1136;SDS011;557;48.466;7.950;2023-03-20T18:13:16;7.60;;;7.00;;
1136;SDS011;557;48.466;7.950;2023-03-20T18:16:10;7.73;;;7.03;;